Washington, District of Columbia
Traffic Map
Current Weather Conditions
Washington, District of Columbia
Broken Clouds
Broken Clouds

Feels Like: -3°
Wind Chill: -3° Ceiling: 6000
Heat Index: Visibility: 10mi
Dew Point: -12° Wind: 14mph
Humidity: 34% Direction: 320° (NW)
Pressure: 30.1in Gusts: 23mph
Raw Report DataKDCA 282152Z 32012G20KT 10SM BKN060 BKN075 02/M12 A3010 RMK AO2 SLP190 VIRGA ALQDS T00221122
Traffic Incident Summary
Active as of:
Severity:
Category:
InformationThere was an issue retrieving the traffic information for this location. Please try a different location or try again shortly.
Advertisements
Track Severe Weather on mobile